Armagh, Canada
Current Conditions -  °F | °C
As of 10:00 PM on Tuesday 21 Oct 2014 (Local Time) from CYQB Reporting Station
Few Clouds Few Clouds  
Wind Chill: 36°   Ceiling: Unl
Heat Index: 43°   Visibility: 15mi
Dew Point: 30°   Wind: 14mph
Humidity: 61%   Direction: 60°ENE
Pressure: 30.24"   Gusts: 24mph
Location:  46.75°N, 70.58°W
Report Text: CYQB 220200Z 06012G21KT 15SM FEW140 FEW170 06/M01 A3024 RMK AC1AC1 SLP242
Loading
Personal Weather Stations






























Interactive Weather Map
Tropical Storm Tracking
New forecast layout! Learn more

10-Day Weather Forecast

Advertisements
Track Severe Weather on mobile